sensor_id;sensor_type;location;lat;lon;timestamp;P1;durP1;ratioP1;P2;durP2;ratioP2
20880;SDS011;10600;53.096;8.802;2022-07-23T00:00:19;7.63;;;3.47;;
20880;SDS011;10600;53.096;8.802;2022-07-23T00:01:20;8.93;;;3.10;;
20880;SDS011;10600;53.096;8.802;2022-07-23T00:02:21;9.57;;;3.90;;
20880;SDS011;10600;53.096;8.802;2022-07-23T00:03:22;6.65;;;2.90;;
20880;SDS011;10600;53.096;8.802;2022-07-23T00:04:23;7.18;;;3.20;;
20880;SDS011;10600;53.096;8.802;2022-07-23T00:05:24;9.77;;;3.30;;
20880;SDS011;10600;53.096;8.802;2022-07-23T00:06:24;9.13;;;3.35;;
20880;SDS011;10600;53.096;8.802;2022-07-23T00:07:25;11.90;;;3.83;;
20880;SDS011;10600;53.096;8.802;2022-07-23T00:08:26;8.73;;;3.25;;
20880;SDS011;10600;53.096;8.802;2022-07-23T00:09:26;9.10;;;3.33;;
20880;SDS011;10600;53.096;8.802;2022-07-23T00:10:28;5.72;;;3.55;;
20880;SDS011;10600;53.096;8.802;2022-07-23T00:11:29;6.30;;;3.17;;
20880;SDS011;10600;53.096;8.802;2022-07-23T00:12:30;6.05;;;3.17;;
20880;SDS011;10600;53.096;8.802;2022-07-23T00:13:30;8.63;;;3.40;;
20880;SDS011;10600;53.096;8.802;2022-07-23T00:14:31;12.25;;;4.45;;
20880;SDS011;10600;53.096;8.802;2022-07-23T00:15:32;6.90;;;3.40;;
20880;SDS011;10600;53.096;8.802;2022-07-23T00:16:32;9.57;;;3.65;;
20880;SDS011;10600;53.096;8.802;2022-07-23T00:17:33;13.95;;;4.35;;
20880;SDS011;10600;53.096;8.802;2022-07-23T00:18:34;12.38;;;5.78;;
20880;SDS011;10600;53.096;8.802;2022-07-23T00:19:35;12.32;;;4.28;;
20880;SDS011;10600;53.096;8.802;2022-07-23T00:20:35;9.63;;;3.50;;
20880;SDS011;10600;53.096;8.802;2022-07-23T00:21:36;11.25;;;4.22;;
20880;SDS011;10600;53.096;8.802;2022-07-23T00:22:45;10.88;;;3.33;;
20880;SDS011;10600;53.096;8.802;2022-07-23T00:23:48;11.82;;;4.32;;
20880;SDS011;10600;53.096;8.802;2022-07-23T00:24:49;8.65;;;3.60;;
20880;SDS011;10600;53.096;8.802;2022-07-23T00:25:49;8.65;;;3.67;;
20880;SDS011;10600;53.096;8.802;2022-07-23T00:26:53;9.38;;;3.65;;
20880;SDS011;10600;53.096;8.802;2022-07-23T00:27:54;15.57;;;3.88;;
20880;SDS011;10600;53.096;8.802;2022-07-23T00:28:55;11.05;;;4.45;;
20880;SDS011;10600;53.096;8.802;2022-07-23T00:29:56;8.23;;;3.47;;
20880;SDS011;10600;53.096;8.802;2022-07-23T00:30:56;7.05;;;3.42;;
20880;SDS011;10600;53.096;8.802;2022-07-23T00:31:57;10.45;;;3.58;;
20880;SDS011;10600;53.096;8.802;2022-07-23T00:32:59;11.27;;;4.00;;
20880;SDS011;10600;53.096;8.802;2022-07-23T00:34:05;7.13;;;3.38;;
20880;SDS011;10600;53.096;8.802;2022-07-23T00:35:06;7.63;;;3.88;;
20880;SDS011;10600;53.096;8.802;2022-07-23T00:36:07;11.70;;;3.53;;
20880;SDS011;10600;53.096;8.802;2022-07-23T00:37:08;7.38;;;3.40;;
20880;SDS011;10600;53.096;8.802;2022-07-23T00:38:09;10.00;;;3.35;;
20880;SDS011;10600;53.096;8.802;2022-07-23T00:39:10;11.15;;;4.15;;
20880;SDS011;10600;53.096;8.802;2022-07-23T00:40:11;9.82;;;3.90;;
20880;SDS011;10600;53.096;8.802;2022-07-23T00:41:12;11.52;;;4.90;;
20880;SDS011;10600;53.096;8.802;2022-07-23T00:42:12;6.93;;;3.50;;
20880;SDS011;10600;53.096;8.802;2022-07-23T00:43:13;8.40;;;3.72;;
20880;SDS011;10600;53.096;8.802;2022-07-23T00:44:24;7.07;;;3.20;;
20880;SDS011;10600;53.096;8.802;2022-07-23T00:45:26;6.95;;;3.50;;
20880;SDS011;10600;53.096;8.802;2022-07-23T00:46:27;8.02;;;3.67;;
20880;SDS011;10600;53.096;8.802;2022-07-23T00:47:28;8.43;;;3.65;;
20880;SDS011;10600;53.096;8.802;2022-07-23T00:48:28;8.10;;;3.92;;
20880;SDS011;10600;53.096;8.802;2022-07-23T00:49:29;9.88;;;3.50;;
20880;SDS011;10600;53.096;8.802;2022-07-23T00:50:30;9.52;;;3.90;;
20880;SDS011;10600;53.096;8.802;2022-07-23T00:51:31;7.47;;;3.28;;
20880;SDS011;10600;53.096;8.802;2022-07-23T00:52:32;9.95;;;3.83;;
20880;SDS011;10600;53.096;8.802;2022-07-23T00:53:34;8.25;;;3.30;;
20880;SDS011;10600;53.096;8.802;2022-07-23T00:54:35;9.68;;;3.60;;
20880;SDS011;10600;53.096;8.802;2022-07-23T00:55:36;12.23;;;4.47;;
20880;SDS011;10600;53.096;8.802;2022-07-23T00:56:37;12.50;;;4.25;;
20880;SDS011;10600;53.096;8.802;2022-07-23T00:57:40;8.13;;;4.20;;
20880;SDS011;10600;53.096;8.802;2022-07-23T00:58:41;9.25;;;4.00;;
20880;SDS011;10600;53.096;8.802;2022-07-23T00:59:43;18.85;;;4.57;;
20880;SDS011;10600;53.096;8.802;2022-07-23T01:00:44;6.97;;;3.20;;
20880;SDS011;10600;53.096;8.802;2022-07-23T01:01:45;12.13;;;3.97;;
20880;SDS011;10600;53.096;8.802;2022-07-23T01:02:48;9.27;;;3.80;;
20880;SDS011;10600;53.096;8.802;2022-07-23T01:03:49;8.60;;;3.20;;
20880;SDS011;10600;53.096;8.802;2022-07-23T01:04:50;11.18;;;4.25;;
20880;SDS011;10600;53.096;8.802;2022-07-23T01:05:51;10.85;;;4.30;;
20880;SDS011;10600;53.096;8.802;2022-07-23T01:06:52;11.57;;;4.78;;
20880;SDS011;10600;53.096;8.802;2022-07-23T01:07:52;10.18;;;4.68;;
20880;SDS011;10600;53.096;8.802;2022-07-23T01:08:54;9.77;;;3.70;;
20880;SDS011;10600;53.096;8.802;2022-07-23T01:09:55;13.50;;;4.70;;
20880;SDS011;10600;53.096;8.802;2022-07-23T01:10:56;8.15;;;3.95;;
20880;SDS011;10600;53.096;8.802;2022-07-23T01:11:57;8.10;;;4.22;;
20880;SDS011;10600;53.096;8.802;2022-07-23T01:13:09;12.55;;;4.30;;
20880;SDS011;10600;53.096;8.802;2022-07-23T01:14:17;17.85;;;5.10;;
20880;SDS011;10600;53.096;8.802;2022-07-23T01:15:18;10.20;;;4.30;;
20880;SDS011;10600;53.096;8.802;2022-07-23T01:16:19;8.23;;;4.10;;
20880;SDS011;10600;53.096;8.802;2022-07-23T01:17:20;9.07;;;4.55;;
20880;SDS011;10600;53.096;8.802;2022-07-23T01:18:21;9.93;;;4.90;;
20880;SDS011;10600;53.096;8.802;2022-07-23T01:19:21;10.68;;;4.93;;
20880;SDS011;10600;53.096;8.802;2022-07-23T01:20:22;12.73;;;5.95;;
20880;SDS011;10600;53.096;8.802;2022-07-23T01:21:23;9.88;;;4.80;;
20880;SDS011;10600;53.096;8.802;2022-07-23T01:22:28;10.20;;;4.70;;
20880;SDS011;10600;53.096;8.802;2022-07-23T01:23:29;11.00;;;4.78;;
20880;SDS011;10600;53.096;8.802;2022-07-23T01:24:30;12.55;;;5.72;;
20880;SDS011;10600;53.096;8.802;2022-07-23T01:25:31;10.70;;;4.50;;
20880;SDS011;10600;53.096;8.802;2022-07-23T01:26:31;11.38;;;5.18;;
20880;SDS011;10600;53.096;8.802;2022-07-23T01:27:32;13.50;;;4.97;;
20880;SDS011;10600;53.096;8.802;2022-07-23T01:28:33;12.70;;;5.15;;
20880;SDS011;10600;53.096;8.802;2022-07-23T01:29:34;12.80;;;5.50;;
20880;SDS011;10600;53.096;8.802;2022-07-23T01:30:34;12.60;;;5.15;;
20880;SDS011;10600;53.096;8.802;2022-07-23T01:31:35;8.48;;;5.15;;
20880;SDS011;10600;53.096;8.802;2022-07-23T01:32:36;8.27;;;4.60;;
20880;SDS011;10600;53.096;8.802;2022-07-23T01:33:37;8.73;;;4.95;;
20880;SDS011;10600;53.096;8.802;2022-07-23T01:34:38;13.82;;;5.32;;
20880;SDS011;10600;53.096;8.802;2022-07-23T01:35:39;13.07;;;5.38;;
20880;SDS011;10600;53.096;8.802;2022-07-23T01:36:40;10.40;;;5.32;;
20880;SDS011;10600;53.096;8.802;2022-07-23T01:37:41;13.20;;;5.57;;
20880;SDS011;10600;53.096;8.802;2022-07-23T01:38:41;11.15;;;5.28;;
20880;SDS011;10600;53.096;8.802;2022-07-23T01:39:42;10.73;;;5.32;;
20880;SDS011;10600;53.096;8.802;2022-07-23T01:40:43;12.35;;;5.45;;
20880;SDS011;10600;53.096;8.802;2022-07-23T01:41:43;12.98;;;5.95;;
20880;SDS011;10600;53.096;8.802;2022-07-23T01:42:44;8.23;;;4.80;;
20880;SDS011;10600;53.096;8.802;2022-07-23T01:43:45;10.02;;;5.38;;
20880;SDS011;10600;53.096;8.802;2022-07-23T01:44:45;14.25;;;5.82;;
20880;SDS011;10600;53.096;8.802;2022-07-23T01:45:46;7.10;;;5.20;;
20880;SDS011;10600;53.096;8.802;2022-07-23T01:46:47;10.32;;;5.10;;
20880;SDS011;10600;53.096;8.802;2022-07-23T01:47:48;8.52;;;5.22;;
20880;SDS011;10600;53.096;8.802;2022-07-23T01:48:48;12.55;;;5.13;;
20880;SDS011;10600;53.096;8.802;2022-07-23T01:49:49;10.68;;;5.18;;
20880;SDS011;10600;53.096;8.802;2022-07-23T01:50:50;10.02;;;5.30;;
20880;SDS011;10600;53.096;8.802;2022-07-23T01:51:51;11.88;;;5.45;;
20880;SDS011;10600;53.096;8.802;2022-07-23T01:53:01;14.10;;;5.97;;
20880;SDS011;10600;53.096;8.802;2022-07-23T01:54:01;10.88;;;4.93;;
20880;SDS011;10600;53.096;8.802;2022-07-23T01:55:02;14.82;;;5.30;;
20880;SDS011;10600;53.096;8.802;2022-07-23T01:56:03;12.07;;;5.40;;
20880;SDS011;10600;53.096;8.802;2022-07-23T01:57:04;8.23;;;4.88;;
20880;SDS011;10600;53.096;8.802;2022-07-23T01:58:06;11.63;;;5.50;;
20880;SDS011;10600;53.096;8.802;2022-07-23T01:59:06;13.07;;;4.70;;
20880;SDS011;10600;53.096;8.802;2022-07-23T02:00:07;14.38;;;5.55;;
20880;SDS011;10600;53.096;8.802;2022-07-23T02:01:08;16.73;;;5.45;;
20880;SDS011;10600;53.096;8.802;2022-07-23T02:02:09;11.20;;;5.00;;
20880;SDS011;10600;53.096;8.802;2022-07-23T02:03:10;10.75;;;5.32;;
20880;SDS011;10600;53.096;8.802;2022-07-23T02:04:10;12.68;;;5.90;;
20880;SDS011;10600;53.096;8.802;2022-07-23T02:05:11;11.55;;;4.88;;
20880;SDS011;10600;53.096;8.802;2022-07-23T02:06:12;12.10;;;5.53;;
20880;SDS011;10600;53.096;8.802;2022-07-23T02:07:13;11.32;;;5.88;;
20880;SDS011;10600;53.096;8.802;2022-07-23T02:08:14;11.93;;;5.32;;
20880;SDS011;10600;53.096;8.802;2022-07-23T02:09:15;11.13;;;5.88;;
20880;SDS011;10600;53.096;8.802;2022-07-23T02:10:16;12.27;;;5.72;;
20880;SDS011;10600;53.096;8.802;2022-07-23T02:11:17;12.82;;;5.85;;
20880;SDS011;10600;53.096;8.802;2022-07-23T02:12:17;10.02;;;5.30;;
20880;SDS011;10600;53.096;8.802;2022-07-23T02:13:18;13.77;;;4.95;;
20880;SDS011;10600;53.096;8.802;2022-07-23T02:14:19;14.00;;;5.72;;
20880;SDS011;10600;53.096;8.802;2022-07-23T02:15:19;10.13;;;5.43;;
20880;SDS011;10600;53.096;8.802;2022-07-23T02:16:20;9.57;;;5.15;;
20880;SDS011;10600;53.096;8.802;2022-07-23T02:17:21;14.05;;;6.47;;
20880;SDS011;10600;53.096;8.802;2022-07-23T02:18:21;13.18;;;5.50;;
20880;SDS011;10600;53.096;8.802;2022-07-23T02:19:22;8.70;;;4.82;;
20880;SDS011;10600;53.096;8.802;2022-07-23T02:20:23;12.18;;;5.57;;
20880;SDS011;10600;53.096;8.802;2022-07-23T02:21:24;10.63;;;5.25;;
20880;SDS011;10600;53.096;8.802;2022-07-23T02:22:25;12.50;;;5.05;;
20880;SDS011;10600;53.096;8.802;2022-07-23T02:23:26;14.43;;;5.75;;
20880;SDS011;10600;53.096;8.802;2022-07-23T02:24:26;11.57;;;5.53;;
20880;SDS011;10600;53.096;8.802;2022-07-23T02:25:27;10.82;;;5.13;;
20880;SDS011;10600;53.096;8.802;2022-07-23T02:26:28;14.27;;;5.82;;
20880;SDS011;10600;53.096;8.802;2022-07-23T02:27:29;11.73;;;6.28;;
20880;SDS011;10600;53.096;8.802;2022-07-23T02:28:29;11.15;;;5.97;;
20880;SDS011;10600;53.096;8.802;2022-07-23T02:29:30;15.40;;;6.15;;
20880;SDS011;10600;53.096;8.802;2022-07-23T02:30:31;12.18;;;6.38;;
20880;SDS011;10600;53.096;8.802;2022-07-23T02:31:31;13.77;;;5.95;;
20880;SDS011;10600;53.096;8.802;2022-07-23T02:32:33;9.82;;;5.60;;
20880;SDS011;10600;53.096;8.802;2022-07-23T02:33:34;15.55;;;6.03;;
20880;SDS011;10600;53.096;8.802;2022-07-23T02:34:35;11.80;;;6.25;;
20880;SDS011;10600;53.096;8.802;2022-07-23T02:35:36;11.68;;;5.65;;
20880;SDS011;10600;53.096;8.802;2022-07-23T02:36:37;12.52;;;6.10;;
20880;SDS011;10600;53.096;8.802;2022-07-23T02:37:38;15.00;;;5.60;;
20880;SDS011;10600;53.096;8.802;2022-07-23T02:38:39;12.05;;;6.35;;
20880;SDS011;10600;53.096;8.802;2022-07-23T02:39:40;9.20;;;5.15;;
20880;SDS011;10600;53.096;8.802;2022-07-23T02:40:40;18.98;;;6.78;;
20880;SDS011;10600;53.096;8.802;2022-07-23T02:41:41;16.73;;;5.88;;
20880;SDS011;10600;53.096;8.802;2022-07-23T02:42:42;10.23;;;5.93;;
20880;SDS011;10600;53.096;8.802;2022-07-23T02:43:42;16.83;;;6.22;;
20880;SDS011;10600;53.096;8.802;2022-07-23T02:44:43;9.80;;;5.47;;
20880;SDS011;10600;53.096;8.802;2022-07-23T02:45:44;12.80;;;5.55;;
20880;SDS011;10600;53.096;8.802;2022-07-23T02:46:45;10.73;;;5.43;;
20880;SDS011;10600;53.096;8.802;2022-07-23T02:47:45;8.43;;;5.40;;
20880;SDS011;10600;53.096;8.802;2022-07-23T02:48:46;14.15;;;5.70;;
20880;SDS011;10600;53.096;8.802;2022-07-23T02:49:47;9.98;;;5.13;;
20880;SDS011;10600;53.096;8.802;2022-07-23T02:50:47;8.32;;;5.35;;
20880;SDS011;10600;53.096;8.802;2022-07-23T02:51:48;15.38;;;5.80;;
20880;SDS011;10600;53.096;8.802;2022-07-23T02:52:49;9.73;;;5.35;;
20880;SDS011;10600;53.096;8.802;2022-07-23T02:53:50;12.93;;;5.03;;
20880;SDS011;10600;53.096;8.802;2022-07-23T02:54:50;10.13;;;5.28;;
20880;SDS011;10600;53.096;8.802;2022-07-23T02:55:51;14.65;;;5.20;;
20880;SDS011;10600;53.096;8.802;2022-07-23T02:56:52;12.55;;;5.28;;
20880;SDS011;10600;53.096;8.802;2022-07-23T02:57:53;10.07;;;5.38;;
20880;SDS011;10600;53.096;8.802;2022-07-23T02:58:53;12.27;;;5.55;;
20880;SDS011;10600;53.096;8.802;2022-07-23T02:59:54;10.52;;;5.25;;
20880;SDS011;10600;53.096;8.802;2022-07-23T03:00:55;7.20;;;4.72;;
20880;SDS011;10600;53.096;8.802;2022-07-23T03:01:56;7.00;;;4.93;;
20880;SDS011;10600;53.096;8.802;2022-07-23T03:02:56;7.85;;;4.97;;
20880;SDS011;10600;53.096;8.802;2022-07-23T03:03:57;12.57;;;5.22;;
20880;SDS011;10600;53.096;8.802;2022-07-23T03:04:58;11.35;;;5.13;;
20880;SDS011;10600;53.096;8.802;2022-07-23T03:05:58;9.95;;;5.03;;
20880;SDS011;10600;53.096;8.802;2022-07-23T03:06:59;13.68;;;5.28;;
20880;SDS011;10600;53.096;8.802;2022-07-23T03:08:00;13.57;;;5.22;;
20880;SDS011;10600;53.096;8.802;2022-07-23T03:09:01;8.85;;;4.50;;
20880;SDS011;10600;53.096;8.802;2022-07-23T03:10:02;10.65;;;5.70;;
20880;SDS011;10600;53.096;8.802;2022-07-23T03:11:03;10.70;;;4.68;;
20880;SDS011;10600;53.096;8.802;2022-07-23T03:12:04;10.25;;;5.35;;
20880;SDS011;10600;53.096;8.802;2022-07-23T03:13:05;8.73;;;4.55;;
20880;SDS011;10600;53.096;8.802;2022-07-23T03:14:06;10.95;;;5.05;;
20880;SDS011;10600;53.096;8.802;2022-07-23T03:15:07;8.82;;;4.30;;
20880;SDS011;10600;53.096;8.802;2022-07-23T03:16:09;10.20;;;4.78;;
20880;SDS011;10600;53.096;8.802;2022-07-23T03:17:09;9.40;;;4.78;;
20880;SDS011;10600;53.096;8.802;2022-07-23T03:18:10;11.60;;;4.75;;
20880;SDS011;10600;53.096;8.802;2022-07-23T03:19:20;10.05;;;4.93;;
20880;SDS011;10600;53.096;8.802;2022-07-23T03:20:20;8.43;;;4.72;;
20880;SDS011;10600;53.096;8.802;2022-07-23T03:21:21;13.38;;;5.30;;
20880;SDS011;10600;53.096;8.802;2022-07-23T03:22:22;10.23;;;5.13;;
20880;SDS011;10600;53.096;8.802;2022-07-23T03:23:22;11.10;;;4.53;;
20880;SDS011;10600;53.096;8.802;2022-07-23T03:24:23;9.40;;;5.00;;
20880;SDS011;10600;53.096;8.802;2022-07-23T03:25:44;11.27;;;5.20;;
20880;SDS011;10600;53.096;8.802;2022-07-23T03:26:46;10.90;;;4.38;;
20880;SDS011;10600;53.096;8.802;2022-07-23T03:27:47;10.48;;;4.82;;
20880;SDS011;10600;53.096;8.802;2022-07-23T03:28:48;8.90;;;4.53;;
20880;SDS011;10600;53.096;8.802;2022-07-23T03:29:49;7.65;;;4.70;;
20880;SDS011;10600;53.096;8.802;2022-07-23T03:30:54;8.10;;;4.88;;
20880;SDS011;10600;53.096;8.802;2022-07-23T03:31:54;10.30;;;5.07;;
20880;SDS011;10600;53.096;8.802;2022-07-23T03:32:55;10.93;;;5.30;;
20880;SDS011;10600;53.096;8.802;2022-07-23T03:33:55;10.13;;;5.32;;
20880;SDS011;10600;53.096;8.802;2022-07-23T03:34:56;12.90;;;4.63;;
20880;SDS011;10600;53.096;8.802;2022-07-23T03:35:57;10.32;;;5.35;;
20880;SDS011;10600;53.096;8.802;2022-07-23T03:36:58;8.18;;;4.57;;
20880;SDS011;10600;53.096;8.802;2022-07-23T03:37:59;8.80;;;4.93;;
20880;SDS011;10600;53.096;8.802;2022-07-23T03:39:00;7.95;;;4.80;;
20880;SDS011;10600;53.096;8.802;2022-07-23T03:40:00;9.60;;;5.07;;
20880;SDS011;10600;53.096;8.802;2022-07-23T03:41:01;10.52;;;4.38;;
20880;SDS011;10600;53.096;8.802;2022-07-23T03:42:02;8.05;;;5.05;;
20880;SDS011;10600;53.096;8.802;2022-07-23T03:43:03;12.30;;;5.82;;
20880;SDS011;10600;53.096;8.802;2022-07-23T03:44:03;9.90;;;5.10;;
20880;SDS011;10600;53.096;8.802;2022-07-23T03:45:04;8.15;;;4.88;;
20880;SDS011;10600;53.096;8.802;2022-07-23T03:46:05;8.80;;;5.35;;
20880;SDS011;10600;53.096;8.802;2022-07-23T03:47:06;10.48;;;5.00;;
20880;SDS011;10600;53.096;8.802;2022-07-23T03:48:07;8.07;;;4.90;;
20880;SDS011;10600;53.096;8.802;2022-07-23T03:49:07;11.82;;;5.50;;
20880;SDS011;10600;53.096;8.802;2022-07-23T03:50:08;12.45;;;5.07;;
20880;SDS011;10600;53.096;8.802;2022-07-23T03:51:09;7.07;;;4.90;;
20880;SDS011;10600;53.096;8.802;2022-07-23T03:52:10;9.75;;;5.40;;
20880;SDS011;10600;53.096;8.802;2022-07-23T03:53:10;12.30;;;5.40;;
20880;SDS011;10600;53.096;8.802;2022-07-23T03:54:11;10.50;;;5.38;;
20880;SDS011;10600;53.096;8.802;2022-07-23T03:55:12;7.38;;;4.82;;
20880;SDS011;10600;53.096;8.802;2022-07-23T03:56:13;12.77;;;5.65;;
20880;SDS011;10600;53.096;8.802;2022-07-23T03:57:14;6.82;;;4.40;;
20880;SDS011;10600;53.096;8.802;2022-07-23T03:58:15;11.55;;;5.15;;
20880;SDS011;10600;53.096;8.802;2022-07-23T03:59:15;10.07;;;4.72;;
20880;SDS011;10600;53.096;8.802;2022-07-23T04:00:16;8.85;;;4.95;;
20880;SDS011;10600;53.096;8.802;2022-07-23T04:01:17;15.63;;;5.10;;
20880;SDS011;10600;53.096;8.802;2022-07-23T04:02:17;11.75;;;4.70;;
20880;SDS011;10600;53.096;8.802;2022-07-23T04:03:18;8.10;;;4.32;;
20880;SDS011;10600;53.096;8.802;2022-07-23T04:04:19;10.40;;;4.93;;
20880;SDS011;10600;53.096;8.802;2022-07-23T04:05:20;12.25;;;5.25;;
20880;SDS011;10600;53.096;8.802;2022-07-23T04:06:20;10.90;;;4.22;;
20880;SDS011;10600;53.096;8.802;2022-07-23T04:07:21;7.50;;;3.83;;
20880;SDS011;10600;53.096;8.802;2022-07-23T04:08:22;10.90;;;4.45;;
20880;SDS011;10600;53.096;8.802;2022-07-23T04:09:22;11.38;;;5.25;;
20880;SDS011;10600;53.096;8.802;2022-07-23T04:10:23;9.02;;;4.50;;
20880;SDS011;10600;53.096;8.802;2022-07-23T04:11:24;10.65;;;4.60;;
20880;SDS011;10600;53.096;8.802;2022-07-23T04:12:24;12.60;;;5.05;;
20880;SDS011;10600;53.096;8.802;2022-07-23T04:13:25;8.52;;;4.38;;
20880;SDS011;10600;53.096;8.802;2022-07-23T04:14:26;11.25;;;5.05;;
20880;SDS011;10600;53.096;8.802;2022-07-23T04:15:27;8.35;;;4.38;;
20880;SDS011;10600;53.096;8.802;2022-07-23T04:16:27;5.93;;;4.38;;
20880;SDS011;10600;53.096;8.802;2022-07-23T04:17:28;10.40;;;5.00;;
20880;SDS011;10600;53.096;8.802;2022-07-23T04:18:29;10.90;;;5.53;;
20880;SDS011;10600;53.096;8.802;2022-07-23T04:19:30;7.35;;;4.47;;
20880;SDS011;10600;53.096;8.802;2022-07-23T04:20:31;12.77;;;5.28;;
20880;SDS011;10600;53.096;8.802;2022-07-23T04:21:32;10.57;;;4.72;;
20880;SDS011;10600;53.096;8.802;2022-07-23T04:22:32;12.38;;;5.25;;
20880;SDS011;10600;53.096;8.802;2022-07-23T04:23:33;9.45;;;5.15;;
20880;SDS011;10600;53.096;8.802;2022-07-23T04:24:34;14.02;;;5.18;;
20880;SDS011;10600;53.096;8.802;2022-07-23T04:25:35;9.70;;;5.07;;
20880;SDS011;10600;53.096;8.802;2022-07-23T04:26:35;13.75;;;5.68;;
20880;SDS011;10600;53.096;8.802;2022-07-23T04:27:36;13.23;;;5.30;;
20880;SDS011;10600;53.096;8.802;2022-07-23T04:28:37;10.27;;;5.20;;
20880;SDS011;10600;53.096;8.802;2022-07-23T04:29:38;11.13;;;5.25;;
20880;SDS011;10600;53.096;8.802;2022-07-23T04:30:38;11.20;;;5.53;;
20880;SDS011;10600;53.096;8.802;2022-07-23T04:31:39;11.23;;;5.55;;
20880;SDS011;10600;53.096;8.802;2022-07-23T04:32:40;12.30;;;6.38;;
20880;SDS011;10600;53.096;8.802;2022-07-23T04:33:41;8.48;;;5.30;;
20880;SDS011;10600;53.096;8.802;2022-07-23T04:34:41;7.75;;;5.03;;
20880;SDS011;10600;53.096;8.802;2022-07-23T04:35:42;11.38;;;5.40;;
20880;SDS011;10600;53.096;8.802;2022-07-23T04:36:43;10.35;;;5.85;;
20880;SDS011;10600;53.096;8.802;2022-07-23T04:37:43;11.27;;;5.85;;
20880;SDS011;10600;53.096;8.802;2022-07-23T04:38:44;9.02;;;5.38;;
20880;SDS011;10600;53.096;8.802;2022-07-23T04:39:45;13.45;;;6.00;;
20880;SDS011;10600;53.096;8.802;2022-07-23T04:40:46;11.18;;;6.07;;
20880;SDS011;10600;53.096;8.802;2022-07-23T04:41:46;10.50;;;5.97;;
20880;SDS011;10600;53.096;8.802;2022-07-23T04:42:47;10.95;;;5.55;;
20880;SDS011;10600;53.096;8.802;2022-07-23T04:43:56;11.60;;;5.97;;
20880;SDS011;10600;53.096;8.802;2022-07-23T04:44:57;12.65;;;5.97;;
20880;SDS011;10600;53.096;8.802;2022-07-23T04:45:57;9.98;;;6.07;;
20880;SDS011;10600;53.096;8.802;2022-07-23T04:46:58;11.00;;;5.70;;
20880;SDS011;10600;53.096;8.802;2022-07-23T04:47:59;10.50;;;5.80;;
20880;SDS011;10600;53.096;8.802;2022-07-23T04:48:59;12.90;;;6.40;;
20880;SDS011;10600;53.096;8.802;2022-07-23T04:50:00;10.57;;;6.60;;
20880;SDS011;10600;53.096;8.802;2022-07-23T04:51:01;9.35;;;5.60;;
20880;SDS011;10600;53.096;8.802;2022-07-23T04:52:02;14.68;;;6.35;;
20880;SDS011;10600;53.096;8.802;2022-07-23T04:53:03;14.90;;;5.63;;
20880;SDS011;10600;53.096;8.802;2022-07-23T04:54:03;14.52;;;6.05;;
20880;SDS011;10600;53.096;8.802;2022-07-23T04:55:04;10.88;;;5.80;;
20880;SDS011;10600;53.096;8.802;2022-07-23T04:56:05;10.82;;;6.10;;
20880;SDS011;10600;53.096;8.802;2022-07-23T04:57:06;10.75;;;6.70;;
20880;SDS011;10600;53.096;8.802;2022-07-23T04:58:07;10.95;;;5.97;;
20880;SDS011;10600;53.096;8.802;2022-07-23T04:59:08;12.70;;;6.72;;
20880;SDS011;10600;53.096;8.802;2022-07-23T05:00:08;14.80;;;6.25;;
20880;SDS011;10600;53.096;8.802;2022-07-23T05:01:10;9.25;;;6.10;;
20880;SDS011;10600;53.096;8.802;2022-07-23T05:02:10;9.82;;;6.03;;
20880;SDS011;10600;53.096;8.802;2022-07-23T05:03:11;20.65;;;6.97;;
20880;SDS011;10600;53.096;8.802;2022-07-23T05:04:12;11.75;;;6.20;;
20880;SDS011;10600;53.096;8.802;2022-07-23T05:05:13;10.90;;;6.68;;
20880;SDS011;10600;53.096;8.802;2022-07-23T05:06:14;12.77;;;7.68;;
20880;SDS011;10600;53.096;8.802;2022-07-23T05:07:15;13.95;;;6.63;;
20880;SDS011;10600;53.096;8.802;2022-07-23T05:08:16;15.35;;;6.50;;
20880;SDS011;10600;53.096;8.802;2022-07-23T05:09:16;10.50;;;6.40;;
20880;SDS011;10600;53.096;8.802;2022-07-23T05:10:17;9.57;;;6.13;;
20880;SDS011;10600;53.096;8.802;2022-07-23T05:11:17;13.35;;;6.35;;
20880;SDS011;10600;53.096;8.802;2022-07-23T05:12:18;12.38;;;6.57;;
20880;SDS011;10600;53.096;8.802;2022-07-23T05:13:19;11.50;;;5.47;;
20880;SDS011;10600;53.096;8.802;2022-07-23T05:14:20;11.52;;;6.50;;
20880;SDS011;10600;53.096;8.802;2022-07-23T05:15:20;12.02;;;5.93;;
20880;SDS011;10600;53.096;8.802;2022-07-23T05:16:21;12.93;;;6.57;;
20880;SDS011;10600;53.096;8.802;2022-07-23T05:17:22;11.38;;;5.63;;
20880;SDS011;10600;53.096;8.802;2022-07-23T05:18:23;10.25;;;6.28;;
20880;SDS011;10600;53.096;8.802;2022-07-23T05:19:23;10.00;;;5.80;;
20880;SDS011;10600;53.096;8.802;2022-07-23T05:20:24;11.05;;;6.32;;
20880;SDS011;10600;53.096;8.802;2022-07-23T05:21:25;8.38;;;5.43;;
20880;SDS011;10600;53.096;8.802;2022-07-23T05:22:26;8.15;;;5.45;;
20880;SDS011;10600;53.096;8.802;2022-07-23T05:23:27;19.05;;;6.05;;
20880;SDS011;10600;53.096;8.802;2022-07-23T05:24:28;11.00;;;5.40;;
20880;SDS011;10600;53.096;8.802;2022-07-23T05:25:28;11.43;;;6.13;;
20880;SDS011;10600;53.096;8.802;2022-07-23T05:26:29;9.43;;;6.13;;
20880;SDS011;10600;53.096;8.802;2022-07-23T05:27:30;8.23;;;5.40;;
20880;SDS011;10600;53.096;8.802;2022-07-23T05:28:31;13.07;;;5.70;;
20880;SDS011;10600;53.096;8.802;2022-07-23T05:29:31;10.32;;;5.88;;
20880;SDS011;10600;53.096;8.802;2022-07-23T05:30:32;11.38;;;6.30;;
20880;SDS011;10600;53.096;8.802;2022-07-23T05:31:33;7.32;;;4.32;;
20880;SDS011;10600;53.096;8.802;2022-07-23T05:32:33;8.35;;;4.93;;
20880;SDS011;10600;53.096;8.802;2022-07-23T05:33:36;11.18;;;5.25;;
20880;SDS011;10600;53.096;8.802;2022-07-23T05:34:37;9.20;;;5.47;;
20880;SDS011;10600;53.096;8.802;2022-07-23T05:35:37;9.63;;;5.68;;
20880;SDS011;10600;53.096;8.802;2022-07-23T05:36:38;9.85;;;4.80;;
20880;SDS011;10600;53.096;8.802;2022-07-23T05:37:39;7.97;;;4.65;;
20880;SDS011;10600;53.096;8.802;2022-07-23T05:38:40;8.98;;;4.93;;
20880;SDS011;10600;53.096;8.802;2022-07-23T05:39:40;7.47;;;4.88;;
20880;SDS011;10600;53.096;8.802;2022-07-23T05:40:41;7.82;;;4.95;;
20880;SDS011;10600;53.096;8.802;2022-07-23T05:41:42;9.80;;;4.85;;
20880;SDS011;10600;53.096;8.802;2022-07-23T05:42:42;9.70;;;5.32;;
20880;SDS011;10600;53.096;8.802;2022-07-23T05:43:43;9.43;;;4.68;;
20880;SDS011;10600;53.096;8.802;2022-07-23T05:44:44;11.52;;;5.25;;
20880;SDS011;10600;53.096;8.802;2022-07-23T05:45:45;10.93;;;4.45;;
20880;SDS011;10600;53.096;8.802;2022-07-23T05:46:45;6.38;;;4.50;;
20880;SDS011;10600;53.096;8.802;2022-07-23T05:47:47;11.63;;;5.07;;
20880;SDS011;10600;53.096;8.802;2022-07-23T05:48:48;8.77;;;4.80;;
20880;SDS011;10600;53.096;8.802;2022-07-23T05:49:51;11.65;;;5.15;;
20880;SDS011;10600;53.096;8.802;2022-07-23T05:50:52;9.93;;;4.50;;
20880;SDS011;10600;53.096;8.802;2022-07-23T05:51:53;7.30;;;4.30;;
20880;SDS011;10600;53.096;8.802;2022-07-23T05:52:54;12.55;;;5.65;;
20880;SDS011;10600;53.096;8.802;2022-07-23T05:53:54;8.50;;;4.78;;
20880;SDS011;10600;53.096;8.802;2022-07-23T05:54:55;14.38;;;6.15;;
20880;SDS011;10600;53.096;8.802;2022-07-23T05:55:56;6.45;;;4.65;;
20880;SDS011;10600;53.096;8.802;2022-07-23T05:56:56;7.85;;;3.75;;
20880;SDS011;10600;53.096;8.802;2022-07-23T05:57:57;7.18;;;4.10;;
20880;SDS011;10600;53.096;8.802;2022-07-23T05:58:58;7.80;;;3.97;;
20880;SDS011;10600;53.096;8.802;2022-07-23T05:59:59;7.32;;;3.78;;
20880;SDS011;10600;53.096;8.802;2022-07-23T06:01:00;6.63;;;4.15;;
20880;SDS011;10600;53.096;8.802;2022-07-23T06:02:01;5.35;;;3.90;;
20880;SDS011;10600;53.096;8.802;2022-07-23T06:03:01;5.20;;;3.60;;
20880;SDS011;10600;53.096;8.802;2022-07-23T06:04:02;7.18;;;3.92;;
20880;SDS011;10600;53.096;8.802;2022-07-23T06:05:03;15.20;;;5.60;;